»·PEaware :: WJA219 CYYC-CYVR

WJA219 :: CYYC-CYVR

FLIGHT INFORMATION

Flight Status: Arrived
Operator:
Westjet Airlines
More flights by this operator :: More flights under this callsign
Pilot: Jamyson D. (13674)
Aircraft: BOEING 737-800
(B738)
More flights by this aircraft type
Origin: CYYC Calgary Intl
Canada
Destination: CYVR Vancouver Intl
Canada
More flights between these airports :: More routes between these airports
Route: BOTAG Q894 BOOTH CANUC4
File this flight plan on PilotEdge
Remarks: PBN / A1B1C1D1S1S2 DOF / 170810 REG / N806SB EET / CZVR0017 OPR / WJA RMK / TCAS SIMBRIEF
Altitude:
(Current/Filed)
36,000ft
Speed:
(Current/Filed)
443kts
Departed: 09-Aug-17 08:29 PM
Arrived: 09-Aug-17 09:31 PM
Distance/Time
Traveled:
370nm/1:02
Distance/Time
To Go:
Arrived

Flight Plot

Page will automatically refresh every two minutes.

Flight plan parsing failed; only flown route is shown


Map Options




Map Legend


Flown Route
Filed Route
Departure Airport
Arrival Airport
Navaid (VOR, NDB)
Fix

Horizontal Profiles

Position Reports

Time Latitude Longitude Heading Altitude Ground
Speed
09-Aug-17 20:14 51.132464 -114.015668 55 3565ft 0kts
09-Aug-17 20:15 51.132277 -114.016099 55 3565ft 2kts
09-Aug-17 20:16 51.132109 -114.016946 119 3565ft 2kts
09-Aug-17 20:17 51.132390 -114.017213 179 3564ft 0kts
09-Aug-17 20:18 51.132390 -114.017213 179 3564ft 0kts
09-Aug-17 20:19 51.132390 -114.017213 179 3564ft 0kts
09-Aug-17 20:20 51.132390 -114.017213 179 3564ft 0kts
09-Aug-17 20:21 51.131768 -114.017214 176 3564ft 8kts
09-Aug-17 20:22 51.127677 -114.016811 179 3565ft 18kts
09-Aug-17 20:23 51.125896 -114.015788 162 3565ft 4kts
09-Aug-17 20:24 51.122682 -114.015677 180 3564ft 19kts
09-Aug-17 20:25 51.117030 -114.017960 180 3564ft 17kts
09-Aug-17 20:26 51.113007 -114.017980 180 3565ft 13kts
09-Aug-17 20:27 51.109015 -114.017979 180 3565ft 14kts
09-Aug-17 20:28 51.104830 -114.017981 180 3565ft 15kts
09-Aug-17 20:29 51.100335 -114.017981 180 3565ft 16kts
09-Aug-17 20:30 51.096928 -114.019642 270 3565ft 10kts
09-Aug-17 20:31 51.098802 -114.021348 0 3565ft 34kts
09-Aug-17 20:32 51.134016 -114.021644 358 4222ft 174kts
09-Aug-17 20:33 51.187094 -114.025568 356 6379ft 198kts
09-Aug-17 20:34 51.217363 -114.097467 249 7842ft 290kts
09-Aug-17 20:35 51.182723 -114.212089 246 10913ft 319kts
09-Aug-17 20:36 51.142652 -114.342149 247 14293ft 334kts
09-Aug-17 20:37 51.100708 -114.476918 247 17327ft 351kts
09-Aug-17 20:38 51.057866 -114.618160 255 20131ft 362kts
09-Aug-17 20:39 51.041515 -114.773213 261 22612ft 374kts
09-Aug-17 20:40 51.017815 -114.936393 258 25040ft 386kts
09-Aug-17 20:41 50.990523 -115.105733 259 26753ft 410kts
09-Aug-17 20:42 50.962092 -115.278874 259 29029ft 413kts
09-Aug-17 20:43 50.932552 -115.456868 259 30742ft 425kts
09-Aug-17 20:44 50.902069 -115.638578 259 32339ft 436kts
09-Aug-17 20:45 50.873308 -115.808261 259 33711ft 444kts
09-Aug-17 20:46 50.841487 -115.993989 259 35603ft 437kts
09-Aug-17 20:47 50.810010 -116.175978 259 36079ft 436kts
09-Aug-17 20:48 50.778343 -116.357076 259 36069ft 435kts
09-Aug-17 20:49 50.745042 -116.539123 257 36069ft 436kts
09-Aug-17 20:50 50.713820 -116.700110 257 36057ft 437kts
09-Aug-17 20:51 50.678465 -116.880716 257 35974ft 436kts
09-Aug-17 20:52 50.642392 -117.063306 256 35962ft 440kts
09-Aug-17 20:53 50.605738 -117.246983 256 35961ft 441kts
09-Aug-17 20:54 50.568759 -117.430595 256 35961ft 442kts
09-Aug-17 20:55 50.531440 -117.614168 256 35961ft 442kts
09-Aug-17 20:56 50.494917 -117.792200 256 35963ft 442kts
09-Aug-17 20:57 50.457123 -117.974741 256 35963ft 442kts
09-Aug-17 20:58 50.418958 -118.157397 256 35963ft 442kts
09-Aug-17 20:59 50.386959 -118.309294 256 35963ft 442kts
09-Aug-17 21:00 50.348394 -118.490865 256 35963ft 442kts
09-Aug-17 21:01 50.304683 -118.694710 255 35979ft 443kts
09-Aug-17 21:02 50.265362 -118.876412 255 35993ft 443kts
09-Aug-17 21:03 50.225789 -119.057671 254 35992ft 444kts
09-Aug-17 21:04 50.192410 -119.209228 254 35992ft 444kts
09-Aug-17 21:05 50.152167 -119.390574 254 35992ft 444kts
09-Aug-17 21:06 50.111646 -119.571606 254 35992ft 444kts
09-Aug-17 21:07 50.071731 -119.748410 254 35994ft 445kts
09-Aug-17 21:08 50.030696 -119.928644 254 35994ft 445kts
09-Aug-17 21:09 49.989237 -120.109208 254 35991ft 445kts
09-Aug-17 21:10 49.947605 -120.289000 254 35982ft 444kts
09-Aug-17 21:11 49.906120 -120.466673 254 34469ft 441kts
09-Aug-17 21:12 49.865402 -120.639715 253 32352ft 443kts
09-Aug-17 21:13 49.824463 -120.812170 253 30186ft 427kts
09-Aug-17 21:14 49.784408 -120.979697 252 28251ft 414kts
09-Aug-17 21:15 49.745415 -121.141819 251 26366ft 391kts
09-Aug-17 21:16 49.707984 -121.295947 250 24582ft 383kts
09-Aug-17 21:17 49.671421 -121.445445 249 22908ft 372kts
09-Aug-17 21:18 49.635301 -121.592240 249 21136ft 364kts
09-Aug-17 21:19 49.600510 -121.732710 248 19517ft 358kts
09-Aug-17 21:20 49.565646 -121.872605 247 17896ft 351kts
09-Aug-17 21:21 49.531013 -122.010702 247 16283ft 344kts
09-Aug-17 21:22 49.485110 -122.136968 237 14682ft 336kts
09-Aug-17 21:23 49.437387 -122.257636 237 13134ft 322kts
09-Aug-17 21:24 49.389635 -122.367298 228 11483ft 305kts
09-Aug-17 21:25 49.333660 -122.465287 227 9319ft 308kts
09-Aug-17 21:26 49.279572 -122.557135 227 7802ft 270kts
09-Aug-17 21:27 49.231973 -122.638321 227 6614ft 251kts
09-Aug-17 21:28 49.192342 -122.721627 238 5480ft 248kts
09-Aug-17 21:29 49.164341 -122.814679 267 4453ft 242kts
09-Aug-17 21:30 49.172679 -122.918858 280 3137ft 246kts
09-Aug-17 21:31 49.183831 -123.015178 279 1990ft 206kts
09-Aug-17 21:32 49.192471 -123.090333 279 930ft 155kts
09-Aug-17 21:33 49.199725 -123.153799 279 144ft 152kts
09-Aug-17 21:34 49.202337 -123.187333 252 17ft 18kts
09-Aug-17 21:35 49.200656 -123.190367 194 15ft 10kts
09-Aug-17 21:36 49.196759 -123.191508 189 14ft 16kts
09-Aug-17 21:37 49.192794 -123.188351 141 14ft 13kts
09-Aug-17 21:38 49.191573 -123.185554 74 17ft 4kts
09-Aug-17 21:39 49.191906 -123.184806 46 17ft 0kts
09-Aug-17 21:40 49.191906 -123.184806 46 17ft 0kts
09-Aug-17 21:41 49.191906 -123.184806 46 17ft 0kts

Navigation Log

Ident Type
Flight plan parsing failed, navigation log unavailable